createdAt,value
2022-10-28T00:03:52.685Z,100411.94
2022-10-28T00:07:54.794Z,100416.91
2022-10-28T00:11:56.548Z,100422.97
2022-10-28T00:16:11.041Z,100421.88
2022-10-28T00:20:12.764Z,100415.25
2022-10-28T00:24:14.561Z,100412.19
2022-10-28T00:28:16.142Z,100417.19
2022-10-28T00:32:19.527Z,100423.56
2022-10-28T00:36:25.070Z,100430.56
2022-10-28T00:40:26.672Z,100438.34
2022-10-28T00:44:49.880Z,100432.84
2022-10-28T00:49:00.041Z,100437.09
2022-10-28T00:53:06.402Z,100426.34
2022-10-28T00:57:13.977Z,100424.44
2022-10-28T01:01:15.813Z,100432.53
2022-10-28T01:05:22.461Z,100413.13
2022-10-28T01:13:57.658Z,100400.69
2022-10-28T01:18:07.601Z,100389.03
2022-10-28T01:22:23.804Z,100394.59
2022-10-28T01:26:44.488Z,100425.63
2022-10-28T01:31:12.119Z,100418.69
2022-10-28T01:35:57.534Z,100420.72
2022-10-28T01:40:08.635Z,100409.59
2022-10-28T01:45:01.112Z,100416.00
2022-10-28T01:49:21.361Z,100412.38
2022-10-28T01:53:27.179Z,100387.09
2022-10-28T01:57:31.742Z,100410.16
2022-10-28T02:01:34.496Z,100417.63
2022-10-28T02:05:41.984Z,100412.88
2022-10-28T02:09:43.493Z,100393.44
2022-10-28T02:14:12.534Z,100396.47
2022-10-28T02:18:40.187Z,100392.56
2022-10-28T02:23:08.444Z,100395.88
2022-10-28T02:27:21.839Z,100385.59
2022-10-28T02:31:30.172Z,100385.03
2022-10-28T02:35:41.054Z,100381.44
2022-10-28T02:39:46.387Z,100381.75
2022-10-28T02:43:53.308Z,100371.47
2022-10-28T02:48:00.240Z,100369.56
2022-10-28T02:52:05.926Z,100380.38
2022-10-28T02:56:10.061Z,100369.28
2022-10-28T03:00:16.849Z,100362.63
2022-10-28T03:04:18.585Z,100348.75
2022-10-28T03:08:20.163Z,100338.47
2022-10-28T03:12:21.691Z,100328.44
2022-10-28T03:16:23.342Z,100323.75
2022-10-28T03:20:25.338Z,100329.84
2022-10-28T03:24:26.976Z,100325.13
2022-10-28T03:28:28.577Z,100319.31
2022-10-28T03:32:30.175Z,100321.28
2022-10-28T03:36:31.880Z,100314.06
2022-10-28T03:40:34.393Z,100304.94
2022-10-28T03:44:36.037Z,100299.91
2022-10-28T03:48:37.573Z,100308.00
2022-10-28T03:52:39.242Z,100309.13
2022-10-28T03:56:40.951Z,100312.47
2022-10-28T04:00:42.541Z,100319.69
2022-10-28T04:04:44.331Z,100333.84
2022-10-28T04:08:45.897Z,100346.59
2022-10-28T04:12:47.526Z,100355.97
2022-10-28T04:16:49.173Z,100362.59
2022-10-28T04:20:50.787Z,100352.56
2022-10-28T04:24:54.764Z,100350.63
2022-10-28T04:28:56.300Z,100358.13
2022-10-28T04:32:57.859Z,100347.25
2022-10-28T04:36:59.411Z,100343.94
2022-10-28T04:41:01.064Z,100338.13
2022-10-28T04:45:02.632Z,100334.00
2022-10-28T04:49:04.259Z,100335.91
2022-10-28T04:53:05.904Z,100334.22
2022-10-28T04:57:07.505Z,100337.81
2022-10-28T05:01:10.287Z,100331.09
2022-10-28T05:05:11.933Z,100337.97
2022-10-28T05:09:13.659Z,100336.56
2022-10-28T05:13:15.268Z,100339.84
2022-10-28T05:17:17.127Z,100328.50
2022-10-28T05:21:18.876Z,100318.28
2022-10-28T05:25:22.133Z,100324.13
2022-10-28T05:29:23.729Z,100321.06
2022-10-28T05:33:25.443Z,100321.06
2022-10-28T05:37:27.773Z,100316.06
2022-10-28T05:41:29.369Z,100303.53
2022-10-28T05:45:31.020Z,100298.22
2022-10-28T05:49:33.319Z,100300.13
2022-10-28T05:53:38.111Z,100300.72
2022-10-28T05:57:39.748Z,100308.25
2022-10-28T06:01:41.382Z,100299.63
2022-10-28T06:05:44.771Z,100308.25
2022-10-28T06:09:46.408Z,100300.50
2022-10-28T06:13:46.972Z,100303.59
2022-10-28T06:17:48.804Z,100301.69
2022-10-28T06:21:50.350Z,100308.94
2022-10-28T06:25:59.413Z,100320.66
2022-10-28T06:30:01.119Z,100324.25
2022-10-28T06:34:04.246Z,100332.94
2022-10-28T06:38:09.288Z,100321.59
2022-10-28T06:42:11.610Z,100325.88
2022-10-28T06:46:13.298Z,100332.28
2022-10-28T06:50:16.610Z,100338.16
2022-10-28T06:54:18.470Z,100327.66
2022-10-28T06:58:20.512Z,100326.25
2022-10-28T07:02:22.694Z,100330.72
2022-10-28T07:06:25.619Z,100329.91
2022-10-28T07:10:27.344Z,100330.78
2022-10-28T07:14:28.954Z,100334.69
2022-10-28T07:18:30.945Z,100330.28
2022-10-28T07:22:34.146Z,100341.97
2022-10-28T07:26:35.809Z,100340.59
2022-10-28T07:30:38.148Z,100342.28
2022-10-28T07:34:39.763Z,100349.50
2022-10-28T07:38:41.345Z,100367.31
2022-10-28T07:42:42.966Z,100361.22
2022-10-28T07:46:44.569Z,100372.59
2022-10-28T07:50:46.176Z,100372.34
2022-10-28T07:54:47.818Z,100368.72
2022-10-28T07:58:50.258Z,100367.84
2022-10-28T08:02:51.852Z,100367.28
2022-10-28T08:10:55.870Z,100368.38
2022-10-28T08:14:57.416Z,100377.84
2022-10-28T08:18:59.141Z,100366.13
2022-10-28T08:23:04.043Z,100385.00
2022-10-28T08:27:08.224Z,100383.84
2022-10-28T08:31:13.109Z,100376.28
2022-10-28T08:35:15.123Z,100372.94
2022-10-28T08:39:16.665Z,100363.97
2022-10-28T08:43:57.168Z,100372.84
2022-10-28T08:48:05.384Z,100364.38
2022-10-28T08:52:28.361Z,100354.72
2022-10-28T08:56:35.493Z,100354.88
2022-10-28T09:00:40.251Z,100356.13
2022-10-28T09:04:44.085Z,100356.19
2022-10-28T09:08:50.087Z,100364.75
2022-10-28T09:13:17.218Z,100363.16
2022-10-28T09:17:21.297Z,100365.88
2022-10-28T09:21:32.826Z,100371.78
2022-10-28T09:25:48.901Z,100360.66
2022-10-28T09:30:22.496Z,100357.44
2022-10-28T09:34:39.685Z,100363.06
2022-10-28T09:38:42.556Z,100360.78
2022-10-28T09:43:00.593Z,100350.38
2022-10-28T09:47:05.428Z,100353.22
2022-10-28T09:51:22.489Z,100353.78
2022-10-28T09:55:24.860Z,100355.13
2022-10-28T09:59:26.519Z,100370.09
2022-10-28T10:03:28.331Z,100371.38
2022-10-28T10:07:43.470Z,100381.00
2022-10-28T10:11:48.287Z,100369.28
2022-10-28T10:15:55.125Z,100371.03
2022-10-28T10:20:06.317Z,100369.66
2022-10-28T10:24:27.978Z,100367.19
2022-10-28T10:28:32.637Z,100368.06
2022-10-28T10:32:34.406Z,100363.72
2022-10-28T10:36:36.164Z,100370.75
2022-10-28T10:40:48.221Z,100351.63
2022-10-28T10:44:59.478Z,100353.63
2022-10-28T10:49:16.723Z,100351.63
2022-10-28T10:53:27.839Z,100342.19
2022-10-28T10:57:31.135Z,100326.97
2022-10-28T11:01:36.643Z,100332.38
2022-10-28T11:05:40.131Z,100322.97
2022-10-28T11:09:42.581Z,100324.84
2022-10-28T11:13:46.362Z,100324.69
2022-10-28T11:17:59.496Z,100318.47
2022-10-28T11:22:29.235Z,100303.75
2022-10-28T11:26:37.729Z,100299.47
2022-10-28T11:30:54.141Z,100301.91
2022-10-28T11:35:27.050Z,100302.88
2022-10-28T11:40:07.129Z,100300.31
2022-10-28T11:44:24.061Z,100281.81
2022-10-28T11:48:59.028Z,100283.41
2022-10-28T11:53:22.095Z,100280.59
2022-10-28T11:57:39.139Z,100270.69
2022-10-28T12:02:08.232Z,100263.31
2022-10-28T12:06:28.749Z,100265.19
2022-10-28T12:10:52.148Z,100255.63
2022-10-28T12:15:15.661Z,100255.50
2022-10-28T12:19:23.134Z,100244.16
2022-10-28T12:23:26.217Z,100240.69
2022-10-28T12:27:33.716Z,100239.59
2022-10-28T12:31:44.583Z,100232.03
2022-10-28T12:36:13.147Z,100242.56
2022-10-28T12:40:43.882Z,100231.88
2022-10-28T12:44:47.778Z,100229.53
2022-10-28T12:48:59.310Z,100230.81
2022-10-28T12:53:03.531Z,100230.13
2022-10-28T12:57:13.158Z,100211.22
2022-10-28T13:01:18.564Z,100219.56
2022-10-28T13:05:25.141Z,100208.81
2022-10-28T13:09:54.156Z,100210.75
2022-10-28T13:14:13.510Z,100209.06
2022-10-28T13:18:44.312Z,100206.47
2022-10-28T13:23:11.452Z,100209.31
2022-10-28T13:27:14.750Z,100223.94
2022-10-28T13:31:17.166Z,100223.00
2022-10-28T13:35:24.282Z,100221.53
2022-10-28T13:39:42.163Z,100210.91
2022-10-28T13:43:58.367Z,100219.81
2022-10-28T13:48:37.757Z,100221.13
2022-10-28T13:52:45.287Z,100227.66
2022-10-28T13:56:49.799Z,100219.75
2022-10-28T14:00:53.498Z,100211.50
2022-10-28T14:05:05.618Z,100216.13
2022-10-28T14:09:21.304Z,100212.28
2022-10-28T14:13:23.332Z,100211.94
2022-10-28T14:17:30.523Z,100217.44
2022-10-28T14:21:48.207Z,100230.53
2022-10-28T14:25:54.716Z,100209.66
2022-10-28T14:29:56.189Z,100231.03
2022-10-28T14:33:57.710Z,100233.66
2022-10-28T14:38:20.195Z,100238.75
2022-10-28T14:42:51.975Z,100231.91
2022-10-28T14:47:08.721Z,100235.53
2022-10-28T14:51:15.859Z,100227.72
2022-10-28T14:55:24.986Z,100223.53
2022-10-28T14:59:37.845Z,100224.66
2022-10-28T15:03:39.919Z,100220.47
2022-10-28T15:07:42.198Z,100221.59
2022-10-28T15:12:07.373Z,100219.75
2022-10-28T15:16:27.266Z,100216.03
2022-10-28T15:20:32.011Z,100212.53
2022-10-28T15:24:34.146Z,100228.50
2022-10-28T15:28:37.162Z,100219.97
2022-10-28T15:32:38.718Z,100229.59
2022-10-28T15:36:40.552Z,100236.41
2022-10-28T15:40:42.306Z,100234.47
2022-10-28T15:44:44.921Z,100225.25
2022-10-28T15:48:52.052Z,100239.63
2022-10-28T15:53:14.839Z,100233.78
2022-10-28T15:57:27.062Z,100226.97
2022-10-28T16:01:35.928Z,100242.25
2022-10-28T16:05:37.548Z,100250.56
2022-10-28T16:09:47.755Z,100249.84
2022-10-28T16:13:50.024Z,100250.38
2022-10-28T16:17:51.926Z,100247.91
2022-10-28T16:21:53.824Z,100249.00
2022-10-28T16:25:55.362Z,100257.38
2022-10-28T16:29:57.022Z,100251.97
2022-10-28T16:33:59.795Z,100266.47
2022-10-28T16:38:01.528Z,100274.22
2022-10-28T16:42:03.243Z,100274.09
2022-10-28T16:46:04.922Z,100277.28
2022-10-28T16:50:06.970Z,100282.97
2022-10-28T16:54:08.548Z,100281.31
2022-10-28T16:58:10.217Z,100290.00
2022-10-28T17:02:19.961Z,100287.44
2022-10-28T17:06:21.792Z,100280.00
2022-10-28T17:10:24.438Z,100274.75
2022-10-28T17:14:25.895Z,100285.41
2022-10-28T17:18:27.558Z,100273.56
2022-10-28T17:22:29.326Z,100282.59
2022-10-28T17:26:30.957Z,100289.63
2022-10-28T17:30:32.627Z,100285.97
2022-10-28T17:34:35.276Z,100296.34
2022-10-28T17:38:36.844Z,100297.59
2022-10-28T17:42:38.704Z,100303.19
2022-10-28T17:46:40.974Z,100317.50
2022-10-28T17:50:44.210Z,100322.03
2022-10-28T17:54:46.099Z,100329.09
2022-10-28T17:58:47.833Z,100328.88
2022-10-28T18:02:49.618Z,100332.59
2022-10-28T18:06:51.272Z,100339.72
2022-10-28T18:10:57.672Z,100341.81
2022-10-28T18:14:59.311Z,100341.97
2022-10-28T18:19:04.923Z,100352.47
2022-10-28T18:23:06.551Z,100350.34
2022-10-28T18:27:09.194Z,100348.66
2022-10-28T18:31:12.496Z,100341.75
2022-10-28T18:35:14.275Z,100341.41
2022-10-28T18:39:15.895Z,100345.13
2022-10-28T18:43:17.674Z,100341.47
2022-10-28T18:47:19.244Z,100342.63
2022-10-28T18:51:20.976Z,100340.97
2022-10-28T18:55:22.654Z,100337.84
2022-10-28T18:59:24.393Z,100347.34
2022-10-28T19:03:26.082Z,100346.94
2022-10-28T19:07:27.690Z,100349.69
2022-10-28T19:11:31.372Z,100343.78
2022-10-28T19:15:33.179Z,100338.72
2022-10-28T19:19:38.444Z,100337.28
2022-10-28T19:23:41.847Z,100330.75
2022-10-28T19:27:43.571Z,100326.81
2022-10-28T19:31:45.184Z,100325.38
2022-10-28T19:35:46.811Z,100332.88
2022-10-28T19:39:50.873Z,100333.34
2022-10-28T19:43:58.238Z,100345.63
2022-10-28T19:48:01.892Z,100355.13
2022-10-28T19:52:03.606Z,100365.84
2022-10-28T19:56:05.782Z,100360.28
2022-10-28T20:00:08.094Z,100356.94
2022-10-28T20:04:13.320Z,100351.41
2022-10-28T20:08:18.217Z,100371.38
2022-10-28T20:12:19.984Z,100362.00
2022-10-28T20:16:23.013Z,100365.00
2022-10-28T20:20:24.676Z,100361.75
2022-10-28T20:24:26.478Z,100368.00
2022-10-28T20:28:30.167Z,100370.91
2022-10-28T20:32:31.668Z,100361.22
2022-10-28T20:36:39.174Z,100371.31
2022-10-28T20:40:40.805Z,100377.84
2022-10-28T20:44:42.333Z,100393.22
2022-10-28T20:48:44.013Z,100389.38
2022-10-28T20:52:45.624Z,100389.44
2022-10-28T20:56:47.216Z,100388.38
2022-10-28T21:00:50.998Z,100383.84
2022-10-28T21:04:52.649Z,100388.91
2022-10-28T21:08:54.699Z,100393.41
2022-10-28T21:12:59.149Z,100394.59
2022-10-28T21:17:01.732Z,100400.22
2022-10-28T21:21:03.540Z,100393.31
2022-10-28T21:25:05.632Z,100393.38
2022-10-28T21:29:07.266Z,100401.53
2022-10-28T21:33:09.479Z,100411.34
2022-10-28T21:37:11.021Z,100403.53
2022-10-28T21:41:19.939Z,100407.75
2022-10-28T21:45:21.533Z,100407.22
2022-10-28T21:49:24.216Z,100411.72
2022-10-28T21:53:25.938Z,100412.59
2022-10-28T21:57:30.177Z,100406.78
2022-10-28T22:01:32.996Z,100415.72
2022-10-28T22:05:34.750Z,100410.72
2022-10-28T22:09:37.520Z,100424.16
2022-10-28T22:13:39.386Z,100433.13
2022-10-28T22:17:40.948Z,100433.13
2022-10-28T22:21:43.615Z,100436.22
2022-10-28T22:25:45.155Z,100432.94
2022-10-28T22:29:46.806Z,100431.56
2022-10-28T22:33:48.395Z,100428.78
2022-10-28T22:37:50.009Z,100432.72
2022-10-28T22:41:51.532Z,100436.91
2022-10-28T22:45:56.130Z,100431.91
2022-10-28T22:49:57.676Z,100428.03
2022-10-28T22:53:59.422Z,100421.06
2022-10-28T22:58:00.951Z,100405.72
2022-10-28T23:02:02.561Z,100398.25
2022-10-28T23:06:04.876Z,100398.53
2022-10-28T23:10:06.879Z,100407.22
2022-10-28T23:14:08.450Z,100407.22
2022-10-28T23:18:10.047Z,100398.91
2022-10-28T23:22:11.614Z,100393.91
2022-10-28T23:26:15.519Z,100384.13
2022-10-28T23:30:17.165Z,100387.72
2022-10-28T23:34:18.833Z,100397.72
2022-10-28T23:38:20.557Z,100403.28
2022-10-28T23:42:22.093Z,100394.91
2022-10-28T23:46:25.032Z,100403.78
2022-10-28T23:50:26.637Z,100404.34
2022-10-28T23:54:28.420Z,100414.91
2022-10-28T23:58:29.949Z,100409.84
